Time;durP1;ratioP1;P1;durP2;ratioP2;P2;SDS_P1;SDS_P2;PMS_P1;PMS_P2;Temp;Humidity;BMP_temperature;BMP_pressure;BME280_temperature;BME280_humidity;BME280_pressure;Samples;Min_cycle;Max_cycle;Signal;HPM_P1;HPM_P2
2021/10/21 00:01:13;;;;;;;6.22;3.92;;;;;;;15.45;92.86;98971.53;4918255;29;20043;-82
2021/10/21 00:03:40;;;;;;;5.50;4.15;;;;;;;15.41;92.39;98969.22;4912097;29;20065;-80
2021/10/21 00:06:07;;;;;;;5.95;3.95;;;;;;;15.36;92.82;98982.81;4939396;28;20520;-81
2021/10/21 00:08:36;;;;;;;7.15;4.57;;;;;;;15.35;93.56;98975.78;4916282;29;20047;-83
2021/10/21 00:11:03;;;;;;;5.40;4.07;;;;;;;15.36;93.35;98969.50;4918301;29;20047;-83
2021/10/21 00:13:30;;;;;;;5.82;4.45;;;;;;;15.37;93.12;98968.53;4929435;29;20058;-83
2021/10/21 00:15:57;;;;;;;4.60;3.65;;;;;;;15.30;93.60;98967.28;4922769;28;20521;-81
2021/10/21 00:18:24;;;;;;;5.38;4.53;;;;;;;15.34;93.15;98960.78;4911690;28;20141;-81
2021/10/21 00:20:51;;;;;;;5.55;4.32;;;;;;;15.24;93.76;98949.06;4919839;29;20052;-82
2021/10/21 00:23:18;;;;;;;9.13;5.20;;;;;;;15.18;94.18;98939.66;4922147;29;20044;-82
2021/10/21 00:25:44;;;;;;;10.52;3.92;;;;;;;15.21;93.78;98934.13;4922354;29;20046;-83
2021/10/21 00:28:14;;;;;;;5.07;4.00;;;;;;;15.27;93.78;98924.03;4934349;28;20054;-83
2021/10/21 00:30:41;;;;;;;4.72;3.90;;;;;;;15.23;93.69;98925.22;4927070;28;20047;-82
2021/10/21 00:33:08;;;;;;;5.68;4.18;;;;;;;15.20;93.97;98928.91;4898711;29;20052;-83
2021/10/21 00:35:35;;;;;;;6.25;4.35;;;;;;;15.27;93.31;98919.56;4932921;29;20051;-81
2021/10/21 00:38:01;;;;;;;6.32;4.38;;;;;;;15.27;92.99;98908.09;4919433;29;20057;-82
2021/10/21 00:40:28;;;;;;;5.50;3.75;;;;;;;15.30;93.31;98907.88;4928375;29;20043;-81
2021/10/21 00:42:54;;;;;;;7.10;4.53;;;;;;;15.20;93.46;98899.66;4919601;28;20074;-83
2021/10/21 00:45:21;;;;;;;5.55;3.85;;;;;;;15.18;93.90;98899.75;4920379;29;20044;-82
2021/10/21 00:47:48;;;;;;;5.00;3.58;;;;;;;15.19;94.03;98885.50;4897042;29;20526;-82
2021/10/21 00:50:15;;;;;;;5.55;3.92;;;;;;;15.26;93.35;98890.41;4916270;29;20039;-82
2021/10/21 00:52:42;;;;;;;4.40;3.38;;;;;;;15.19;93.72;98882.84;4919709;29;20047;-82
2021/10/21 00:55:09;;;;;;;7.63;4.05;;;;;;;15.14;94.32;98871.69;4921213;28;20118;-82
2021/10/21 00:57:37;;;;;;;5.15;3.60;;;;;;;15.15;93.93;98880.50;4921131;28;20098;-82
2021/10/21 01:00:04;;;;;;;7.63;4.28;;;;;;;15.16;94.25;98874.22;4929888;28;20039;-81
2021/10/21 01:02:31;;;;;;;4.82;3.67;;;;;;;15.21;93.58;98867.63;4938918;28;20046;-82
2021/10/21 01:04:58;;;;;;;4.60;3.63;;;;;;;15.27;92.86;98857.53;4910784;28;20118;-81
2021/10/21 01:07:25;;;;;;;5.03;3.92;;;;;;;15.16;93.80;98856.47;4931018;28;20520;-83
2021/10/21 01:09:52;;;;;;;4.80;3.80;;;;;;;15.19;93.38;98847.41;4923790;28;20616;-81
2021/10/21 01:12:19;;;;;;;5.80;3.92;;;;;;;15.21;93.08;98843.69;4943915;28;20507;-83
2021/10/21 01:14:46;;;;;;;6.95;4.47;;;;;;;15.26;92.70;98831.88;4902538;29;20430;-81
2021/10/21 01:17:14;;;;;;;6.40;4.43;;;;;;;15.20;93.38;98833.16;4919459;29;20047;-81
2021/10/21 01:19:41;;;;;;;4.97;3.95;;;;;;;15.19;93.31;98821.66;4909828;28;20051;-81
2021/10/21 01:22:08;;;;;;;5.18;4.35;;;;;;;15.12;94.14;98820.38;4917198;29;20714;-83
2021/10/21 01:24:34;;;;;;;10.55;4.45;;;;;;;15.16;93.51;98813.06;4914880;29;20052;-81
2021/10/21 01:27:01;;;;;;;6.25;4.55;;;;;;;15.16;93.53;98805.91;4926285;28;20054;-81
2021/10/21 01:29:28;;;;;;;5.55;4.22;;;;;;;15.12;93.85;98799.09;4907062;28;20508;-81
2021/10/21 01:31:56;;;;;;;5.32;4.05;;;;;;;15.16;93.93;98800.59;4943489;28;20043;-81
2021/10/21 01:34:23;;;;;;;5.97;4.20;;;;;;;15.23;92.67;98800.19;4924042;28;20152;-83
2021/10/21 01:36:53;;;;;;;5.63;4.10;;;;;;;15.21;93.58;98793.13;4934228;29;20040;-82
2021/10/21 01:39:20;;;;;;;6.50;4.53;;;;;;;15.15;94.24;98769.66;4905205;29;20118;-81
2021/10/21 01:41:47;;;;;;;5.18;4.22;;;;;;;15.20;93.75;98770.16;4937619;29;20043;-82
2021/10/21 01:44:14;;;;;;;6.53;4.13;;;;;;;15.19;93.73;98749.84;4925675;29;20036;-81
2021/10/21 01:46:40;;;;;;;4.72;3.65;;;;;;;15.12;94.29;98740.56;5008597;23;20047;-83
2021/10/21 01:49:07;;;;;;;6.25;3.88;;;;;;;15.18;93.70;98740.16;4913602;29;20501;-82
2021/10/21 01:51:34;;;;;;;5.53;4.22;;;;;;;15.15;94.33;98729.75;4928855;29;20035;-82
2021/10/21 01:54:01;;;;;;;5.50;4.60;;;;;;;15.14;94.61;98720.06;4906035;29;20033;-81
2021/10/21 01:56:28;;;;;;;5.18;3.90;;;;;;;15.08;95.36;98709.84;4903667;29;20047;-80
2021/10/21 01:58:55;;;;;;;5.28;3.63;;;;;;;15.20;94.67;98719.63;4922328;29;20040;-80
2021/10/21 02:01:22;;;;;;;5.30;4.25;;;;;;;15.25;94.07;98697.19;4929282;29;20072;-80
2021/10/21 02:03:49;;;;;;;5.47;4.30;;;;;;;15.21;94.56;98669.91;4942710;29;20050;-80
2021/10/21 02:06:16;;;;;;;5.95;4.00;;;;;;;15.18;94.98;98659.50;4958737;29;20048;-80
2021/10/21 02:08:43;;;;;;;5.65;4.05;;;;;;;15.19;94.87;98672.69;4922010;29;20054;-80
2021/10/21 02:11:10;;;;;;;4.57;4.03;;;;;;;15.28;93.98;98655.22;4928146;29;20044;-80
2021/10/21 02:13:36;;;;;;;5.60;4.22;;;;;;;15.21;94.33;98649.50;4924688;29;20083;-80
2021/10/21 02:16:03;;;;;;;5.60;4.20;;;;;;;15.23;94.89;98648.56;4918214;29;20067;-81
2021/10/21 02:18:31;;;;;;;6.57;4.22;;;;;;;15.20;94.96;98653.09;4929939;29;20125;-80
2021/10/21 02:20:57;;;;;;;6.78;4.47;;;;;;;15.24;94.71;98642.28;4912975;29;20048;-81
2021/10/21 02:23:24;;;;;;;4.88;4.38;;;;;;;15.27;94.55;98623.41;4939849;29;20036;-80
2021/10/21 02:25:51;;;;;;;5.63;4.18;;;;;;;15.20;94.65;98620.34;4908642;29;20052;-81
2021/10/21 02:28:18;;;;;;;7.50;4.47;;;;;;;15.27;94.26;98626.94;4937345;29;20035;-81
2021/10/21 02:30:44;;;;;;;5.95;4.32;;;;;;;15.26;94.32;98595.97;4917603;29;20051;-80
2021/10/21 02:33:11;;;;;;;5.25;4.28;;;;;;;15.29;94.44;98586.91;4923921;29;20047;-81
2021/10/21 02:35:38;;;;;;;6.72;4.68;;;;;;;15.28;94.67;98590.53;4941025;29;20100;-81
2021/10/21 02:38:04;;;;;;;5.03;4.18;;;;;;;15.27;94.28;98563.09;4924317;29;20047;-81
2021/10/21 02:40:31;;;;;;;5.85;4.22;;;;;;;15.16;95.27;98523.13;4919410;29;20055;-81
2021/10/21 02:42:58;;;;;;;6.10;4.78;;;;;;;15.25;94.42;98530.44;4919349;29;20044;-81
2021/10/21 02:45:25;;;;;;;5.10;4.15;;;;;;;15.32;93.58;98549.47;4897616;29;20044;-80
2021/10/21 02:47:51;;;;;;;6.20;4.65;;;;;;;15.27;94.12;98538.28;4915129;29;20044;-81
2021/10/21 02:50:18;;;;;;;5.85;4.65;;;;;;;15.26;94.28;98531.28;4915424;29;20043;-82
2021/10/21 02:52:44;;;;;;;4.93;4.20;;;;;;;15.28;93.95;98498.28;4922641;29;20498;-83
2021/10/21 02:55:11;;;;;;;5.00;3.92;;;;;;;15.31;93.73;98513.19;4920522;29;20051;-82
2021/10/21 02:57:38;;;;;;;4.97;4.05;;;;;;;15.23;95.02;98511.09;4923341;29;20043;-82
2021/10/21 03:00:05;;;;;;;7.65;5.30;;;;;;;15.28;94.63;98500.09;4913424;29;20507;-81
2021/10/21 03:02:32;;;;;;;5.28;4.03;;;;;;;15.29;93.56;98480.50;4925415;29;20047;-82
2021/10/21 03:04:59;;;;;;;5.20;3.97;;;;;;;15.30;94.39;98492.81;4905438;29;20052;-84
2021/10/21 03:07:25;;;;;;;8.60;4.78;;;;;;;15.26;94.41;98499.34;4915822;29;20036;-81
2021/10/21 03:09:52;;;;;;;4.50;3.83;;;;;;;15.30;93.92;98488.38;4884989;29;20047;-82
2021/10/21 03:12:19;;;;;;;6.45;4.10;;;;;;;15.30;93.89;98485.72;4912509;29;20072;-81
2021/10/21 03:14:45;;;;;;;6.38;4.20;;;;;;;15.37;93.47;98483.44;4912058;29;20047;-82
2021/10/21 03:17:13;;;;;;;4.40;3.50;;;;;;;15.32;93.49;98469.66;4900070;29;20144;-82
2021/10/21 03:19:39;;;;;;;5.00;3.63;;;;;;;15.33;93.38;98455.38;4910135;29;20563;-82
2021/10/21 03:22:06;;;;;;;5.30;3.67;;;;;;;15.35;92.78;98448.97;4901162;29;20048;-82
2021/10/21 03:24:33;;;;;;;4.88;3.60;;;;;;;15.43;92.40;98443.91;4914672;29;20058;-81
2021/10/21 03:26:59;;;;;;;4.53;3.30;;;;;;;15.44;91.81;98436.78;4921293;29;20524;-81
2021/10/21 03:29:26;;;;;;;5.35;3.35;;;;;;;15.41;91.47;98419.25;4916830;29;20135;-83
2021/10/21 03:31:53;;;;;;;5.32;3.22;;;;;;;15.43;91.43;98419.13;4916998;29;20054;-82
2021/10/21 03:34:20;;;;;;;5.20;3.17;;;;;;;15.44;91.11;98404.84;4901792;29;20044;-82
2021/10/21 03:36:46;;;;;;;3.97;3.00;;;;;;;15.48;90.57;98403.66;4902733;29;20555;-82
2021/10/21 03:39:13;;;;;;;3.55;3.00;;;;;;;15.47;90.58;98394.00;4907602;29;20051;-81
2021/10/21 03:41:40;;;;;;;4.10;3.08;;;;;;;15.40;91.15;98398.94;4901317;29;20043;-80
2021/10/21 03:44:06;;;;;;;5.68;3.58;;;;;;;15.41;90.45;98383.81;4915626;29;20054;-81
2021/10/21 03:46:33;;;;;;;5.93;3.15;;;;;;;15.48;89.02;98377.91;4900458;29;20768;-81
2021/10/21 03:49:00;;;;;;;4.40;2.65;;;;;;;15.52;88.71;98372.34;4910982;29;20384;-81
2021/10/21 03:51:26;;;;;;;4.18;2.67;;;;;;;15.55;89.21;98353.44;4901175;29;20047;-81
2021/10/21 03:53:54;;;;;;;4.28;2.67;;;;;;;15.56;88.26;98347.19;4906042;29;20055;-82
2021/10/21 03:56:22;;;;;;;3.75;2.60;;;;;;;15.59;88.07;98341.63;4890537;29;20119;-83
2021/10/21 03:58:49;;;;;;;4.18;2.70;;;;;;;15.55;88.59;98348.97;4913731;29;20044;-82
2021/10/21 04:01:15;;;;;;;3.10;2.40;;;;;;;15.61;87.06;98337.91;4900665;29;20047;-82
2021/10/21 04:03:42;;;;;;;3.08;2.30;;;;;;;15.68;86.86;98328.47;4900611;29;20057;-81
2021/10/21 04:06:09;;;;;;;3.15;2.30;;;;;;;15.73;85.74;98328.97;4916338;29;20451;-82
2021/10/21 04:08:35;;;;;;;3.85;2.70;;;;;;;15.76;85.93;98330.53;4912751;29;20106;-82
2021/10/21 04:11:02;;;;;;;3.25;2.60;;;;;;;15.73;86.10;98341.44;4912657;29;20460;-82
2021/10/21 04:13:29;;;;;;;3.08;2.15;;;;;;;15.79;85.48;98332.94;4914177;29;20052;-82
2021/10/21 04:15:55;;;;;;;3.90;2.47;;;;;;;15.77;84.86;98332.22;4900640;29;20050;-82
2021/10/21 04:18:22;;;;;;;3.00;2.30;;;;;;;15.81;84.47;98340.81;4898725;29;20043;-82
2021/10/21 04:20:49;;;;;;;3.30;2.40;;;;;;;15.85;84.09;98336.94;4907729;29;20558;-80
2021/10/21 04:23:16;;;;;;;2.95;2.00;;;;;;;15.89;81.93;98335.72;4917973;29;20055;-82
2021/10/21 04:25:42;;;;;;;5.20;2.78;;;;;;;15.88;82.22;98334.03;4903540;29;20479;-82
2021/10/21 04:28:09;;;;;;;5.25;2.70;;;;;;;15.85;83.19;98352.91;4926490;29;20047;-84
2021/10/21 04:30:37;;;;;;;3.45;2.28;;;;;;;15.85;85.05;98360.91;4928403;29;20502;-81
2021/10/21 04:33:15;;;;;;;3.67;2.50;;;;;;;15.83;89.47;98349.53;4909564;29;20058;-81
2021/10/21 04:35:48;;;;;;;2.95;2.47;;;;;;;15.62;93.46;98344.06;4918117;29;20043;-81
2021/10/21 04:38:14;;;;;;;3.83;2.88;;;;;;;15.43;95.71;98331.31;4939380;29;20059;-81
2021/10/21 04:40:41;;;;;;;2.20;1.80;;;;;;;15.27;97.56;98317.50;4910903;29;20040;-82
2021/10/21 04:43:08;;;;;;;4.93;2.38;;;;;;;15.12;100.00;98234.41;4915907;29;20044;-82
2021/10/21 04:45:34;;;;;;;3.10;2.30;;;;;;;14.86;100.00;98185.91;4926032;29;20103;-83
2021/10/21 04:48:01;;;;;;;4.28;2.17;;;;;;;14.75;100.00;98218.63;4906775;29;20040;-82
2021/10/21 04:50:28;;;;;;;3.55;1.80;;;;;;;14.67;100.00;98202.44;4921529;29;20068;-82
2021/10/21 04:52:54;;;;;;;2.75;2.40;;;;;;;14.57;100.00;98236.00;4916661;29;20072;-82
2021/10/21 04:55:25;;;;;;;3.47;2.35;;;;;;;14.52;100.00;98224.84;4896536;29;20563;-83
2021/10/21 04:57:52;;;;;;;3.50;2.00;;;;;;;14.41;100.00;98211.50;4902937;29;20040;-83
2021/10/21 05:00:19;;;;;;;3.00;1.98;;;;;;;14.36;100.00;98196.75;4915277;29;20052;-82
2021/10/21 05:02:46;;;;;;;3.40;2.20;;;;;;;14.30;100.00;98188.41;4903655;29;20110;-81
2021/10/21 05:05:13;;;;;;;4.10;2.38;;;;;;;14.26;100.00;98171.00;4896134;29;20107;-82
2021/10/21 05:07:40;;;;;;;5.55;2.63;;;;;;;14.24;100.00;98184.41;4920880;29;20503;-83
2021/10/21 05:10:07;;;;;;;2.72;2.00;;;;;;;14.20;100.00;98168.78;4900758;29;20044;-81
2021/10/21 05:12:34;;;;;;;3.33;2.22;;;;;;;14.15;100.00;98163.84;4905437;29;20138;-81
2021/10/21 05:15:00;;;;;;;3.38;2.20;;;;;;;14.09;100.00;98154.50;4916717;29;20040;-81
2021/10/21 05:17:27;;;;;;;2.80;1.77;;;;;;;14.10;100.00;98134.13;4907578;29;20040;-82
2021/10/21 05:19:54;;;;;;;2.30;1.95;;;;;;;14.02;100.00;98121.41;4905287;29;20047;-82
2021/10/21 05:22:20;;;;;;;4.53;2.05;;;;;;;13.98;100.00;98109.34;4937302;29;20052;-83
2021/10/21 05:24:47;;;;;;;3.75;2.10;;;;;;;14.04;100.00;98108.91;4924848;29;20059;-82
2021/10/21 05:27:14;;;;;;;2.28;1.70;;;;;;;14.03;100.00;98107.19;4907451;29;20047;-84
2021/10/21 05:29:41;;;;;;;3.15;1.80;;;;;;;14.07;100.00;98099.84;4915146;29;20048;-83
2021/10/21 05:32:07;;;;;;;3.17;1.90;;;;;;;14.04;100.00;98098.28;4899327;29;20054;-82
2021/10/21 05:34:35;;;;;;;1.75;1.60;;;;;;;14.05;100.00;98092.00;4899935;29;20061;-83
2021/10/21 05:37:02;;;;;;;3.00;1.98;;;;;;;14.06;100.00;98079.56;4916378;29;20043;-82
2021/10/21 05:39:30;;;;;;;3.30;1.73;;;;;;;14.04;100.00;98073.50;4915053;29;20052;-83
2021/10/21 05:41:57;;;;;;;2.45;1.63;;;;;;;14.04;100.00;98077.03;4910358;29;20047;-83
2021/10/21 05:44:24;;;;;;;3.25;1.50;;;;;;;14.05;100.00;98067.25;4900565;29;20051;-83
2021/10/21 05:46:52;;;;;;;2.38;1.70;;;;;;;14.07;99.28;98060.88;4900900;29;20048;-83
2021/10/21 05:49:19;;;;;;;1.98;1.50;;;;;;;14.07;99.59;98068.84;4889531;29;20036;-84
2021/10/21 05:51:46;;;;;;;13.02;8.48;;;;;;;14.08;99.65;98064.38;4906618;29;20069;-85
2021/10/21 05:54:13;;;;;;;12.32;8.13;;;;;;;14.11;97.62;98068.59;4892405;29;20036;-84
2021/10/21 05:56:40;;;;;;;13.27;9.55;;;;;;;14.19;96.27;98052.91;4906043;29;20411;-82
2021/10/21 05:59:07;;;;;;;5.45;2.80;;;;;;;14.20;95.67;98055.44;4900629;29;20488;-82
2021/10/21 06:01:33;;;;;;;6.93;5.70;;;;;;;14.20;94.47;98078.50;4899091;29;20047;-82
2021/10/21 06:04:00;;;;;;;2.75;1.35;;;;;;;14.22;94.05;98073.94;4898836;29;20070;-81
2021/10/21 06:06:27;;;;;;;3.72;1.60;;;;;;;14.24;92.15;98072.00;4918464;29;20536;-83
2021/10/21 06:08:54;;;;;;;2.83;1.98;;;;;;;14.37;90.92;98076.25;4898592;29;20811;-83
2021/10/21 06:11:21;;;;;;;3.05;1.48;;;;;;;14.42;91.06;98064.44;4900701;29;20445;-83
2021/10/21 06:13:47;;;;;;;1.88;1.70;;;;;;;14.44;89.72;98066.00;4931218;29;20431;-82
2021/10/21 06:16:14;;;;;;;1.67;1.40;;;;;;;14.47;89.86;98052.53;4900873;29;20050;-82
2021/10/21 06:18:41;;;;;;;2.47;2.00;;;;;;;14.50;89.58;98046.97;4908537;29;20055;-81
2021/10/21 06:21:10;;;;;;;2.90;1.65;;;;;;;14.50;89.42;98046.13;4918335;29;20043;-82
2021/10/21 06:23:37;;;;;;;1.83;1.50;;;;;;;14.52;89.40;98045.03;4910815;29;20074;-82
2021/10/21 06:26:04;;;;;;;1.48;1.15;;;;;;;14.61;87.93;98031.03;4909850;29;20410;-82
2021/10/21 06:28:30;;;;;;;4.00;1.25;;;;;;;14.62;87.47;98024.72;4901664;29;20051;-81
2021/10/21 06:30:58;;;;;;;4.30;2.60;;;;;;;14.74;86.38;98024.75;4909992;29;20099;-82
2021/10/21 06:33:24;;;;;;;2.50;1.73;;;;;;;14.76;87.08;98014.84;4918676;29;20593;-82
2021/10/21 06:35:52;;;;;;;2.70;1.73;;;;;;;14.72;87.10;98021.38;4933582;29;20039;-81
2021/10/21 06:38:18;;;;;;;4.68;2.13;;;;;;;14.74;85.83;97995.53;4927522;29;20171;-82
2021/10/21 06:40:45;;;;;;;5.40;4.80;;;;;;;14.71;85.66;98017.00;4921617;29;20059;-82
2021/10/21 06:43:12;;;;;;;2.08;1.40;;;;;;;14.72;85.67;98016.06;4900440;29;20051;-82
2021/10/21 06:45:38;;;;;;;2.33;1.10;;;;;;;14.75;85.37;97998.03;4923084;29;20065;-81
2021/10/21 06:48:05;;;;;;;3.35;1.48;;;;;;;14.78;84.42;97994.28;4896829;29;20035;-82
2021/10/21 06:50:32;;;;;;;7.18;1.77;;;;;;;14.81;84.63;97988.75;4931248;29;20047;-81
2021/10/21 06:52:58;;;;;;;2.22;1.30;;;;;;;14.86;83.83;97994.53;4910855;29;20084;-82
2021/10/21 06:55:25;;;;;;;2.20;1.20;;;;;;;14.90;81.27;97993.31;4912364;29;20052;-82
2021/10/21 06:57:54;;;;;;;2.40;0.95;;;;;;;14.94;80.34;97992.09;4917170;29;20127;-81
2021/10/21 07:00:21;;;;;;;2.20;1.45;;;;;;;14.98;79.86;97988.22;4915366;29;20055;-81
2021/10/21 07:02:48;;;;;;;1.38;0.95;;;;;;;15.02;79.52;97987.00;4919181;29;20046;-81
2021/10/21 07:05:16;;;;;;;2.25;1.10;;;;;;;15.02;79.01;98008.28;4918320;29;20067;-81
2021/10/21 07:07:44;;;;;;;2.53;1.33;;;;;;;15.08;76.34;97970.56;4900639;29;20044;-80
2021/10/21 07:10:11;;;;;;;2.75;2.13;;;;;;;15.13;74.64;97991.44;4940213;29;20043;-81
2021/10/21 07:12:39;;;;;;;0.98;0.88;;;;;;;15.19;75.46;97994.44;4902480;29;20048;-81
2021/10/21 07:15:09;;;;;;;2.55;1.20;;;;;;;15.16;75.01;97984.06;4893205;29;20060;-81
2021/10/21 07:17:36;;;;;;;2.47;1.08;;;;;;;15.13;75.65;97994.97;4896402;29;20044;-81
2021/10/21 07:20:04;;;;;;;1.80;1.10;;;;;;;15.20;76.88;98011.25;4931234;29;20054;-80
2021/10/21 07:22:31;;;;;;;1.42;1.08;;;;;;;15.14;77.32;98003.78;4909867;29;20044;-81
2021/10/21 07:24:58;;;;;;;3.67;1.20;;;;;;;15.02;79.41;98013.59;4921342;29;20054;-81
2021/10/21 07:27:25;;;;;;;2.13;1.23;;;;;;;14.80;83.32;98037.56;4884464;29;20740;-81
2021/10/21 07:29:51;;;;;;;5.38;1.73;;;;;;;14.46;91.96;98089.81;4933205;29;20102;-84
2021/10/21 07:32:18;;;;;;;2.35;1.40;;;;;;;14.03;99.23;98077.97;4935067;29;20075;-83
2021/10/21 07:34:45;;;;;;;2.58;1.42;;;;;;;13.70;100.00;98081.34;4890842;29;20044;-81
2021/10/21 07:37:12;;;;;;;2.58;1.27;;;;;;;13.41;100.00;98088.81;4887234;29;20048;-83
2021/10/21 07:39:40;;;;;;;4.97;1.67;;;;;;;13.30;100.00;98067.53;4900234;29;20044;-83
2021/10/21 07:42:11;;;;;;;2.95;1.38;;;;;;;13.22;100.00;98061.94;4898541;29;20051;-82
2021/10/21 07:44:44;;;;;;;4.63;1.35;;;;;;;13.07;100.00;98063.88;4909533;29;20044;-81
2021/10/21 07:47:23;;;;;;;3.05;1.23;;;;;;;12.99;100.00;98055.63;4918111;29;20050;-84
2021/10/21 07:49:58;;;;;;;5.03;1.98;;;;;;;12.88;100.00;98058.19;4892510;29;20056;-83
2021/10/21 07:52:29;;;;;;;2.10;1.40;;;;;;;12.86;100.00;98055.66;4921274;29;20115;-83
2021/10/21 07:54:56;;;;;;;3.45;1.45;;;;;;;12.80;100.00;98045.50;4931241;29;20051;-82
2021/10/21 07:57:22;;;;;;;3.33;1.92;;;;;;;12.73;100.00;98049.53;4910750;29;20044;-83
2021/10/21 07:59:49;;;;;;;3.83;1.50;;;;;;;12.74;100.00;98053.88;4987728;23;20571;-80
2021/10/21 08:02:19;;;;;;;2.05;1.70;;;;;;;12.66;100.00;98043.81;4939341;28;20068;-80
2021/10/21 08:04:48;;;;;;;2.55;1.20;;;;;;;12.66;100.00;98048.25;4940095;28;20100;-79
2021/10/21 08:07:15;;;;;;;2.88;1.20;;;;;;;12.79;100.00;98045.59;4958464;28;20133;-79
2021/10/21 08:09:42;;;;;;;5.60;1.95;;;;;;;12.81;100.00;98056.94;4962047;28;20023;-81
2021/10/21 08:12:10;;;;;;;4.03;1.77;;;;;;;12.90;100.00;98045.69;4952961;28;20375;-79
2021/10/21 08:14:37;;;;;;;3.30;1.90;;;;;;;12.93;100.00;98053.41;4948472;28;20101;-79
2021/10/21 08:17:04;;;;;;;5.43;2.50;;;;;;;12.99;100.00;98044.16;4950905;28;20056;-79
2021/10/21 08:19:30;;;;;;;2.95;1.38;;;;;;;12.98;100.00;98043.31;4956733;28;20047;-79
2021/10/21 08:21:57;;;;;;;3.72;1.42;;;;;;;13.09;100.00;98045.19;4937497;28;20047;-80
2021/10/21 08:24:24;;;;;;;3.45;1.42;;;;;;;13.19;96.21;98046.22;4953162;28;20049;-78
2021/10/21 08:26:52;;;;;;;1.67;1.10;;;;;;;13.29;94.96;98049.09;4936321;28;20039;-78
2021/10/21 08:29:22;;;;;;;2.70;1.05;;;;;;;13.29;92.03;98042.00;4929483;28;20409;-81
2021/10/21 08:31:56;;;;;;;3.05;0.98;;;;;;;13.28;89.27;98042.91;4953574;28;20131;-80
2021/10/21 08:34:22;;;;;;;5.13;1.35;;;;;;;13.34;88.51;98034.53;4925349;28;20536;-80
2021/10/21 08:36:49;;;;;;;3.38;1.30;;;;;;;13.31;82.41;98044.53;4938276;28;20042;-79
2021/10/21 08:39:16;;;;;;;4.32;1.17;;;;;;;13.48;83.22;98025.56;4923948;28;20069;-80
2021/10/21 08:41:45;;;;;;;3.17;1.13;;;;;;;13.59;80.89;98038.00;4933258;28;20042;-81
2021/10/21 08:44:13;;;;;;;7.25;1.35;;;;;;;13.58;78.31;98025.72;4944295;28;20039;-81
2021/10/21 08:46:40;;;;;;;3.08;1.02;;;;;;;13.64;77.49;98026.13;4930645;28;20066;-81
2021/10/21 08:49:07;;;;;;;5.47;1.67;;;;;;;13.65;75.17;98037.56;4935762;28;20054;-82
2021/10/21 08:51:34;;;;;;;4.20;1.17;;;;;;;13.70;74.88;98027.44;4950944;28;20093;-80
2021/10/21 08:54:04;;;;;;;2.65;1.00;;;;;;;13.66;75.03;98026.84;4919568;28;20047;-81
2021/10/21 08:56:32;;;;;;;5.05;1.23;;;;;;;13.74;74.45;98031.56;4918978;28;20047;-79
2021/10/21 08:59:03;;;;;;;2.25;1.50;;;;;;;13.73;74.15;98020.13;4956198;28;20047;-81
2021/10/21 09:01:40;;;;;;;3.25;0.80;;;;;;;13.79;74.52;98030.28;4940243;28;20046;-80
2021/10/21 09:09:29;;;;;;;3.20;0.90;;;;;;;13.91;72.61;98006.41;4960688;28;20043;-83
2021/10/21 09:12:08;;;;;;;2.22;0.95;;;;;;;13.87;70.92;98012.91;4936404;29;20079;-81
2021/10/21 09:14:41;;;;;;;3.20;0.80;;;;;;;13.86;72.01;98024.47;4949286;28;20069;-80
2021/10/21 09:17:09;;;;;;;2.13;0.80;;;;;;;13.88;73.29;98036.69;4933555;28;20047;-81
2021/10/21 09:19:37;;;;;;;2.17;1.40;;;;;;;13.83;70.45;98024.72;4949105;28;20035;-80
2021/10/21 09:22:05;;;;;;;6.53;1.25;;;;;;;13.91;70.78;98017.88;4921640;28;20042;-80
2021/10/21 09:24:32;;;;;;;3.35;1.10;;;;;;;13.94;70.15;98014.13;4946302;28;20039;-82
2021/10/21 09:27:02;;;;;;;2.05;0.70;;;;;;;13.99;70.13;98004.84;4929783;29;20497;-85
2021/10/21 09:29:29;;;;;;;3.08;1.00;;;;;;;14.04;69.02;98008.03;4926118;28;20126;-82
2021/10/21 09:32:16;;;;;;;3.85;1.00;;;;;;;14.18;69.48;98012.25;4947662;28;20058;-82
2021/10/21 09:34:53;;;;;;;3.30;1.00;;;;;;;14.30;68.86;98007.81;4959561;28;20037;-82
2021/10/21 09:37:29;;;;;;;4.47;1.17;;;;;;;14.42;68.59;97998.88;4934281;28;20502;-81
2021/10/21 09:39:58;;;;;;;1.85;0.70;;;;;;;14.37;68.28;98009.84;4938000;28;20134;-83
2021/10/21 09:42:33;;;;;;;2.03;0.90;;;;;;;14.37;67.55;97998.38;4936364;28;20409;-83
2021/10/21 09:45:24;;;;;;;3.70;1.25;;;;;;;14.28;67.77;97991.97;4933922;28;20085;-83
2021/10/21 09:47:56;;;;;;;8.27;1.20;;;;;;;14.33;67.62;98016.38;4935324;28;20046;-81
2021/10/21 09:50:37;;;;;;;5.82;1.20;;;;;;;14.39;66.48;98011.56;4946172;29;20176;-83
2021/10/21 09:53:09;;;;;;;6.95;1.58;;;;;;;14.46;67.17;98013.66;4937175;28;20043;-82
2021/10/21 09:55:37;;;;;;;9.73;1.35;;;;;;;14.42;66.77;98000.69;4959848;28;20038;-83
2021/10/21 09:58:06;;;;;;;2.47;1.17;;;;;;;14.36;66.24;97997.53;4920417;29;20055;-82
2021/10/21 10:00:36;;;;;;;4.97;0.90;;;;;;;14.35;66.68;97997.66;4931725;28;20060;-81
2021/10/21 10:03:37;;;;;;;4.55;1.35;;;;;;;14.31;66.36;98017.47;4926038;29;20059;-82
2021/10/21 10:06:04;;;;;;;6.22;1.38;;;;;;;14.30;65.97;98023.75;4919313;28;20051;-82
2021/10/21 10:08:31;;;;;;;7.47;1.88;;;;;;;14.29;66.62;98014.94;4923654;29;20047;-83
2021/10/21 10:11:03;;;;;;;3.78;1.05;;;;;;;14.29;65.73;98020.25;4933636;28;20234;-81
2021/10/21 10:13:30;;;;;;;1.85;1.00;;;;;;;14.35;66.64;98025.06;4958980;28;20051;-82
2021/10/21 10:15:58;;;;;;;3.17;0.90;;;;;;;14.39;66.70;98019.53;4950988;28;20054;-84
2021/10/21 10:18:28;;;;;;;5.43;1.00;;;;;;;14.45;66.83;97996.00;4933678;28;20054;-85
2021/10/21 10:21:17;;;;;;;2.95;1.05;;;;;;;14.50;65.24;98030.19;4962766;28;20057;-82
2021/10/21 10:23:54;;;;;;;6.38;1.55;;;;;;;14.56;66.93;98016.44;4959630;28;20126;-82
2021/10/21 10:26:55;;;;;;;4.05;0.90;;;;;;;14.58;67.76;98017.16;4932311;28;20556;-83
2021/10/21 10:29:31;;;;;;;4.05;1.00;;;;;;;14.49;65.40;98050.59;4906188;28;20051;-82
2021/10/21 10:32:05;;;;;;;3.38;0.90;;;;;;;14.44;66.64;98038.59;4952476;28;20052;-82
2021/10/21 10:34:32;;;;;;;4.50;0.82;;;;;;;14.32;66.64;98048.38;4915741;29;20048;-82
2021/10/21 10:37:14;;;;;;;10.50;1.30;;;;;;;14.13;67.01;98040.97;4948535;28;20514;-83
2021/10/21 10:39:53;;;;;;;5.35;1.10;;;;;;;14.12;68.32;98062.31;4928001;29;20042;-82
2021/10/21 10:42:30;;;;;;;2.33;0.90;;;;;;;14.14;67.07;98076.34;4930199;28;20503;-84
2021/10/21 10:45:00;;;;;;;2.40;0.82;;;;;;;14.15;68.55;98062.94;4957060;28;20043;-83
2021/10/21 10:47:39;;;;;;;5.47;0.80;;;;;;;14.16;69.98;98099.16;4950174;29;20430;-83
2021/10/21 10:50:07;;;;;;;3.13;0.80;;;;;;;13.84;73.00;98075.03;4931259;28;20050;-84
2021/10/21 10:52:50;;;;;;;2.08;1.00;;;;;;;13.58;79.56;98134.47;4938245;29;20604;-82
2021/10/21 10:55:25;;;;;;;3.85;1.10;;;;;;;13.18;87.99;98172.63;4928981;29;20059;-81
2021/10/21 10:57:54;;;;;;;2.20;0.55;;;;;;;13.02;92.43;98210.91;4973455;28;20114;-84
2021/10/21 11:00:41;;;;;;;2.70;0.73;;;;;;;12.63;92.78;98202.97;4967353;28;20042;-83
2021/10/21 11:03:08;;;;;;;0.90;0.57;;;;;;;12.55;93.95;98209.72;4941940;28;20051;-83
2021/10/21 11:05:47;;;;;;;1.10;0.60;;;;;;;12.55;93.97;98236.22;4952419;28;20043;-82
2021/10/21 11:08:18;;;;;;;5.57;1.67;;;;;;;12.35;92.19;98235.72;4948889;28;20046;-82
2021/10/21 11:10:54;;;;;;;5.18;0.80;;;;;;;12.24;89.64;98217.06;4955588;28;20451;-85
2021/10/21 11:13:38;;;;;;;2.53;0.55;;;;;;;12.20;88.38;98272.97;4948016;28;20039;-81
2021/10/21 11:16:54;;;;;;;1.45;0.63;;;;;;;12.13;87.31;98292.84;4940679;28;20039;-83
2021/10/21 11:19:45;;;;;;;1.55;0.88;;;;;;;12.06;83.77;98309.09;4920701;28;20046;-84
2021/10/21 11:22:18;;;;;;;1.00;0.40;;;;;;;12.14;82.07;98324.50;4928689;29;20059;-83
2021/10/21 11:24:48;;;;;;;1.92;0.70;;;;;;;12.02;79.20;98355.25;4933874;29;20571;-85
2021/10/21 11:27:17;;;;;;;1.90;0.60;;;;;;;12.03;80.24;98367.53;4947655;28;20046;-83
2021/10/21 11:29:47;;;;;;;2.20;0.60;;;;;;;11.99;78.39;98396.91;4945947;28;20043;-84
2021/10/21 11:32:15;;;;;;;1.55;0.50;;;;;;;12.01;78.58;98397.66;4949305;28;20137;-82
2021/10/21 11:34:42;;;;;;;0.65;0.50;;;;;;;12.09;78.97;98413.91;4931398;28;20058;-82
2021/10/21 11:37:08;;;;;;;0.52;0.35;;;;;;;12.00;75.67;98415.34;4935414;28;20501;-84
2021/10/21 11:39:37;;;;;;;1.85;0.95;;;;;;;12.05;74.75;98449.47;4947811;28;20391;-84
2021/10/21 11:42:09;;;;;;;1.33;0.60;;;;;;;12.22;76.11;98438.69;4953358;28;20047;-81
2021/10/21 11:44:36;;;;;;;1.27;0.82;;;;;;;12.30;75.70;98470.84;4932123;28;20050;-83